sensor_id;sensor_type;location;lat;lon;timestamp;P1;durP1;ratioP1;P2;durP2;ratioP2
55609;SDS011;41486;52.502;13.486;2022-11-14T00:00:28;35.55;;;17.17;;
55609;SDS011;41486;52.502;13.486;2022-11-14T00:03:16;32.17;;;18.02;;
55609;SDS011;41486;52.502;13.486;2022-11-14T00:06:03;31.98;;;17.83;;
55609;SDS011;41486;52.502;13.486;2022-11-14T00:08:51;35.22;;;17.70;;
55609;SDS011;41486;52.502;13.486;2022-11-14T00:11:38;35.85;;;17.33;;
55609;SDS011;41486;52.502;13.486;2022-11-14T00:14:24;35.38;;;17.60;;
55609;SDS011;41486;52.502;13.486;2022-11-14T00:17:11;33.22;;;17.67;;
55609;SDS011;41486;52.502;13.486;2022-11-14T00:19:59;37.53;;;18.45;;
55609;SDS011;41486;52.502;13.486;2022-11-14T00:22:45;32.47;;;17.88;;
55609;SDS011;41486;52.502;13.486;2022-11-14T00:25:32;35.10;;;17.65;;
55609;SDS011;41486;52.502;13.486;2022-11-14T00:28:19;35.45;;;17.27;;
55609;SDS011;41486;52.502;13.486;2022-11-14T00:31:05;35.30;;;18.25;;
55609;SDS011;41486;52.502;13.486;2022-11-14T00:33:52;38.63;;;18.50;;
55609;SDS011;41486;52.502;13.486;2022-11-14T00:36:41;40.28;;;19.55;;
55609;SDS011;41486;52.502;13.486;2022-11-14T00:39:27;43.95;;;19.23;;
55609;SDS011;41486;52.502;13.486;2022-11-14T00:42:14;40.92;;;19.98;;
55609;SDS011;41486;52.502;13.486;2022-11-14T00:45:01;37.83;;;17.65;;
55609;SDS011;41486;52.502;13.486;2022-11-14T00:47:48;34.55;;;16.73;;
55609;SDS011;41486;52.502;13.486;2022-11-14T00:50:34;35.83;;;16.88;;
55609;SDS011;41486;52.502;13.486;2022-11-14T00:53:23;39.60;;;20.27;;
55609;SDS011;41486;52.502;13.486;2022-11-14T00:56:09;37.70;;;17.42;;
55609;SDS011;41486;52.502;13.486;2022-11-14T00:58:56;37.47;;;19.05;;
55609;SDS011;41486;52.502;13.486;2022-11-14T01:01:43;37.05;;;18.10;;
55609;SDS011;41486;52.502;13.486;2022-11-14T01:04:29;41.83;;;20.75;;
55609;SDS011;41486;52.502;13.486;2022-11-14T01:07:16;35.92;;;18.60;;
55609;SDS011;41486;52.502;13.486;2022-11-14T01:10:05;39.40;;;18.85;;
55609;SDS011;41486;52.502;13.486;2022-11-14T01:12:52;38.08;;;18.42;;
55609;SDS011;41486;52.502;13.486;2022-11-14T01:15:39;47.22;;;20.85;;
55609;SDS011;41486;52.502;13.486;2022-11-14T01:18:26;41.88;;;22.70;;
55609;SDS011;41486;52.502;13.486;2022-11-14T01:21:13;50.60;;;20.35;;
55609;SDS011;41486;52.502;13.486;2022-11-14T01:24:00;43.92;;;20.52;;
55609;SDS011;41486;52.502;13.486;2022-11-14T01:26:48;39.42;;;19.05;;
55609;SDS011;41486;52.502;13.486;2022-11-14T01:29:35;43.17;;;21.35;;
55609;SDS011;41486;52.502;13.486;2022-11-14T01:32:21;47.30;;;20.58;;
55609;SDS011;41486;52.502;13.486;2022-11-14T01:35:08;45.95;;;21.73;;
55609;SDS011;41486;52.502;13.486;2022-11-14T01:37:54;43.42;;;21.58;;
55609;SDS011;41486;52.502;13.486;2022-11-14T01:40:42;45.55;;;19.85;;
55609;SDS011;41486;52.502;13.486;2022-11-14T01:43:31;49.95;;;20.80;;
55609;SDS011;41486;52.502;13.486;2022-11-14T01:46:20;43.40;;;19.08;;
55609;SDS011;41486;52.502;13.486;2022-11-14T01:49:12;44.10;;;18.38;;
55609;SDS011;41486;52.502;13.486;2022-11-14T01:52:03;47.85;;;20.58;;
55609;SDS011;41486;52.502;13.486;2022-11-14T01:54:52;48.50;;;21.55;;
55609;SDS011;41486;52.502;13.486;2022-11-14T01:57:41;43.60;;;19.83;;
55609;SDS011;41486;52.502;13.486;2022-11-14T02:00:32;45.65;;;20.08;;
55609;SDS011;41486;52.502;13.486;2022-11-14T02:03:19;45.55;;;19.52;;
55609;SDS011;41486;52.502;13.486;2022-11-14T02:06:08;42.80;;;20.10;;
55609;SDS011;41486;52.502;13.486;2022-11-14T02:08:59;40.92;;;19.15;;
55609;SDS011;41486;52.502;13.486;2022-11-14T02:11:48;49.55;;;21.90;;
55609;SDS011;41486;52.502;13.486;2022-11-14T02:14:36;45.22;;;20.17;;
55609;SDS011;41486;52.502;13.486;2022-11-14T02:17:24;45.00;;;20.58;;
55609;SDS011;41486;52.502;13.486;2022-11-14T02:20:18;48.65;;;22.48;;
55609;SDS011;41486;52.502;13.486;2022-11-14T02:23:06;46.92;;;21.17;;
55609;SDS011;41486;52.502;13.486;2022-11-14T02:25:53;42.13;;;19.98;;
55609;SDS011;41486;52.502;13.486;2022-11-14T02:28:40;39.17;;;18.55;;
55609;SDS011;41486;52.502;13.486;2022-11-14T02:31:27;46.00;;;19.15;;
55609;SDS011;41486;52.502;13.486;2022-11-14T02:34:13;39.92;;;17.70;;
55609;SDS011;41486;52.502;13.486;2022-11-14T02:37:05;49.55;;;21.20;;
55609;SDS011;41486;52.502;13.486;2022-11-14T02:39:52;44.47;;;20.30;;
55609;SDS011;41486;52.502;13.486;2022-11-14T02:42:38;43.25;;;20.77;;
55609;SDS011;41486;52.502;13.486;2022-11-14T02:45:28;41.90;;;18.58;;
55609;SDS011;41486;52.502;13.486;2022-11-14T02:48:14;40.28;;;18.08;;
55609;SDS011;41486;52.502;13.486;2022-11-14T02:51:02;40.45;;;19.27;;
55609;SDS011;41486;52.502;13.486;2022-11-14T02:53:49;48.00;;;22.65;;
55609;SDS011;41486;52.502;13.486;2022-11-14T02:56:36;37.63;;;18.77;;
55609;SDS011;41486;52.502;13.486;2022-11-14T02:59:22;41.00;;;19.80;;
55609;SDS011;41486;52.502;13.486;2022-11-14T03:02:09;39.10;;;18.80;;
55609;SDS011;41486;52.502;13.486;2022-11-14T03:04:56;47.33;;;20.27;;
55609;SDS011;41486;52.502;13.486;2022-11-14T03:07:43;40.75;;;20.40;;
55609;SDS011;41486;52.502;13.486;2022-11-14T03:10:31;49.60;;;21.55;;
55609;SDS011;41486;52.502;13.486;2022-11-14T03:13:17;49.97;;;21.77;;
55609;SDS011;41486;52.502;13.486;2022-11-14T03:16:05;48.33;;;21.30;;
55609;SDS011;41486;52.502;13.486;2022-11-14T03:18:52;48.50;;;19.13;;
55609;SDS011;41486;52.502;13.486;2022-11-14T03:21:39;47.92;;;19.52;;
55609;SDS011;41486;52.502;13.486;2022-11-14T03:24:25;36.75;;;19.50;;
55609;SDS011;41486;52.502;13.486;2022-11-14T03:27:13;41.70;;;18.67;;
55609;SDS011;41486;52.502;13.486;2022-11-14T03:30:00;44.58;;;21.05;;
55609;SDS011;41486;52.502;13.486;2022-11-14T03:32:47;42.72;;;19.30;;
55609;SDS011;41486;52.502;13.486;2022-11-14T03:35:33;43.65;;;18.05;;
55609;SDS011;41486;52.502;13.486;2022-11-14T03:38:20;44.00;;;18.63;;
55609;SDS011;41486;52.502;13.486;2022-11-14T03:41:07;44.15;;;20.30;;
55609;SDS011;41486;52.502;13.486;2022-11-14T03:43:54;44.92;;;20.45;;
55609;SDS011;41486;52.502;13.486;2022-11-14T03:46:41;50.00;;;20.00;;
55609;SDS011;41486;52.502;13.486;2022-11-14T03:49:30;42.05;;;18.23;;
55609;SDS011;41486;52.502;13.486;2022-11-14T03:52:17;42.30;;;18.98;;
55609;SDS011;41486;52.502;13.486;2022-11-14T03:55:04;44.42;;;19.20;;
55609;SDS011;41486;52.502;13.486;2022-11-14T03:57:51;43.58;;;19.65;;
55609;SDS011;41486;52.502;13.486;2022-11-14T04:00:39;38.80;;;17.42;;
55609;SDS011;41486;52.502;13.486;2022-11-14T04:03:25;44.65;;;17.98;;
55609;SDS011;41486;52.502;13.486;2022-11-14T04:06:12;41.13;;;18.20;;
55609;SDS011;41486;52.502;13.486;2022-11-14T04:08:59;46.63;;;20.05;;
55609;SDS011;41486;52.502;13.486;2022-11-14T04:11:46;41.40;;;18.33;;
55609;SDS011;41486;52.502;13.486;2022-11-14T04:14:33;53.33;;;20.60;;
55609;SDS011;41486;52.502;13.486;2022-11-14T04:17:20;56.92;;;22.00;;
55609;SDS011;41486;52.502;13.486;2022-11-14T04:20:07;45.13;;;20.20;;
55609;SDS011;41486;52.502;13.486;2022-11-14T04:22:55;47.25;;;19.20;;
55609;SDS011;41486;52.502;13.486;2022-11-14T04:25:42;46.20;;;20.52;;
55609;SDS011;41486;52.502;13.486;2022-11-14T04:28:28;41.95;;;18.25;;
55609;SDS011;41486;52.502;13.486;2022-11-14T04:31:15;47.45;;;20.58;;
55609;SDS011;41486;52.502;13.486;2022-11-14T04:34:03;49.90;;;21.73;;
55609;SDS011;41486;52.502;13.486;2022-11-14T04:36:50;54.67;;;23.55;;
55609;SDS011;41486;52.502;13.486;2022-11-14T04:39:37;45.92;;;21.70;;
55609;SDS011;41486;52.502;13.486;2022-11-14T04:42:23;51.60;;;20.60;;
55609;SDS011;41486;52.502;13.486;2022-11-14T04:45:10;57.63;;;22.67;;
55609;SDS011;41486;52.502;13.486;2022-11-14T04:47:57;41.25;;;18.20;;
55609;SDS011;41486;52.502;13.486;2022-11-14T04:50:45;46.17;;;18.83;;
55609;SDS011;41486;52.502;13.486;2022-11-14T04:53:31;46.60;;;20.15;;
55609;SDS011;41486;52.502;13.486;2022-11-14T04:56:18;47.17;;;19.17;;
55609;SDS011;41486;52.502;13.486;2022-11-14T04:59:07;52.45;;;21.90;;
55609;SDS011;41486;52.502;13.486;2022-11-14T05:01:53;46.00;;;21.15;;
55609;SDS011;41486;52.502;13.486;2022-11-14T05:04:40;51.08;;;20.35;;
55609;SDS011;41486;52.502;13.486;2022-11-14T05:07:29;46.55;;;19.77;;
55609;SDS011;41486;52.502;13.486;2022-11-14T05:10:16;53.92;;;20.50;;
55609;SDS011;41486;52.502;13.486;2022-11-14T05:13:03;44.83;;;18.50;;
55609;SDS011;41486;52.502;13.486;2022-11-14T05:15:49;48.22;;;20.55;;
55609;SDS011;41486;52.502;13.486;2022-11-14T05:18:36;47.22;;;21.45;;
55609;SDS011;41486;52.502;13.486;2022-11-14T05:21:29;47.15;;;20.00;;
55609;SDS011;41486;52.502;13.486;2022-11-14T05:24:18;47.38;;;19.88;;
55609;SDS011;41486;52.502;13.486;2022-11-14T05:27:05;48.42;;;19.08;;
55609;SDS011;41486;52.502;13.486;2022-11-14T05:29:52;42.17;;;19.70;;
55609;SDS011;41486;52.502;13.486;2022-11-14T05:32:39;49.38;;;19.45;;
55609;SDS011;41486;52.502;13.486;2022-11-14T05:35:26;46.05;;;19.38;;
55609;SDS011;41486;52.502;13.486;2022-11-14T05:38:13;50.10;;;19.95;;
55609;SDS011;41486;52.502;13.486;2022-11-14T05:41:02;48.42;;;19.00;;
55609;SDS011;41486;52.502;13.486;2022-11-14T05:43:51;40.78;;;18.95;;
55609;SDS011;41486;52.502;13.486;2022-11-14T05:46:37;44.22;;;18.60;;
55609;SDS011;41486;52.502;13.486;2022-11-14T05:49:24;43.95;;;17.73;;
55609;SDS011;41486;52.502;13.486;2022-11-14T05:52:11;47.83;;;17.90;;
55609;SDS011;41486;52.502;13.486;2022-11-14T05:54:58;45.60;;;19.13;;
55609;SDS011;41486;52.502;13.486;2022-11-14T05:57:46;50.25;;;19.42;;
55609;SDS011;41486;52.502;13.486;2022-11-14T06:00:32;41.65;;;18.63;;
55609;SDS011;41486;52.502;13.486;2022-11-14T06:03:31;44.47;;;19.65;;
55609;SDS011;41486;52.502;13.486;2022-11-14T06:06:19;52.83;;;20.55;;
55609;SDS011;41486;52.502;13.486;2022-11-14T06:09:06;43.00;;;18.85;;
55609;SDS011;41486;52.502;13.486;2022-11-14T06:11:53;45.25;;;18.77;;
55609;SDS011;41486;52.502;13.486;2022-11-14T06:14:41;46.33;;;19.92;;
55609;SDS011;41486;52.502;13.486;2022-11-14T06:17:27;50.35;;;19.25;;
55609;SDS011;41486;52.502;13.486;2022-11-14T06:20:13;46.30;;;18.75;;
55609;SDS011;41486;52.502;13.486;2022-11-14T06:23:00;51.38;;;19.15;;
55609;SDS011;41486;52.502;13.486;2022-11-14T06:25:47;50.33;;;20.40;;
55609;SDS011;41486;52.502;13.486;2022-11-14T06:28:34;48.67;;;19.75;;
55609;SDS011;41486;52.502;13.486;2022-11-14T06:31:22;44.22;;;17.95;;
55609;SDS011;41486;52.502;13.486;2022-11-14T06:34:10;43.83;;;20.67;;
55609;SDS011;41486;52.502;13.486;2022-11-14T06:36:57;43.78;;;19.00;;
55609;SDS011;41486;52.502;13.486;2022-11-14T06:39:44;45.60;;;18.33;;
55609;SDS011;41486;52.502;13.486;2022-11-14T06:42:30;51.35;;;19.05;;
55609;SDS011;41486;52.502;13.486;2022-11-14T06:45:17;43.42;;;17.67;;
55609;SDS011;41486;52.502;13.486;2022-11-14T06:48:05;46.40;;;21.10;;
55609;SDS011;41486;52.502;13.486;2022-11-14T06:50:52;46.05;;;19.33;;
55609;SDS011;41486;52.502;13.486;2022-11-14T06:53:39;48.33;;;21.98;;
55609;SDS011;41486;52.502;13.486;2022-11-14T06:56:26;45.28;;;18.65;;
55609;SDS011;41486;52.502;13.486;2022-11-14T06:59:13;49.50;;;21.05;;
55609;SDS011;41486;52.502;13.486;2022-11-14T07:01:59;50.95;;;18.75;;
55609;SDS011;41486;52.502;13.486;2022-11-14T07:04:47;49.45;;;19.88;;
55609;SDS011;41486;52.502;13.486;2022-11-14T07:07:34;46.92;;;18.23;;
55609;SDS011;41486;52.502;13.486;2022-11-14T07:10:20;37.47;;;17.38;;
55609;SDS011;41486;52.502;13.486;2022-11-14T07:13:07;40.30;;;19.50;;
55609;SDS011;41486;52.502;13.486;2022-11-14T07:15:55;43.53;;;18.42;;
55609;SDS011;41486;52.502;13.486;2022-11-14T07:18:42;41.47;;;18.88;;
55609;SDS011;41486;52.502;13.486;2022-11-14T07:21:30;45.42;;;18.55;;
55609;SDS011;41486;52.502;13.486;2022-11-14T07:24:18;48.45;;;20.80;;
55609;SDS011;41486;52.502;13.486;2022-11-14T07:27:05;44.88;;;17.40;;
55609;SDS011;41486;52.502;13.486;2022-11-14T07:29:53;45.83;;;19.80;;
55609;SDS011;41486;52.502;13.486;2022-11-14T07:32:39;42.85;;;18.50;;
55609;SDS011;41486;52.502;13.486;2022-11-14T07:35:26;42.50;;;17.88;;
55609;SDS011;41486;52.502;13.486;2022-11-14T07:38:14;48.42;;;20.20;;
55609;SDS011;41486;52.502;13.486;2022-11-14T07:41:01;47.03;;;20.00;;
55609;SDS011;41486;52.502;13.486;2022-11-14T07:43:49;44.85;;;19.25;;
55609;SDS011;41486;52.502;13.486;2022-11-14T07:46:35;46.85;;;19.30;;
55609;SDS011;41486;52.502;13.486;2022-11-14T07:49:22;41.08;;;18.30;;
55609;SDS011;41486;52.502;13.486;2022-11-14T07:52:08;45.40;;;18.88;;
55609;SDS011;41486;52.502;13.486;2022-11-14T07:54:56;50.63;;;19.15;;
55609;SDS011;41486;52.502;13.486;2022-11-14T07:57:43;50.08;;;19.42;;
55609;SDS011;41486;52.502;13.486;2022-11-14T08:00:33;45.63;;;18.75;;
55609;SDS011;41486;52.502;13.486;2022-11-14T08:03:20;48.70;;;17.27;;
55609;SDS011;41486;52.502;13.486;2022-11-14T08:06:08;46.03;;;18.80;;
55609;SDS011;41486;52.502;13.486;2022-11-14T08:08:55;47.03;;;19.20;;
55609;SDS011;41486;52.502;13.486;2022-11-14T08:11:44;37.80;;;17.92;;
55609;SDS011;41486;52.502;13.486;2022-11-14T08:14:38;42.80;;;17.83;;
55609;SDS011;41486;52.502;13.486;2022-11-14T08:17:25;39.20;;;15.93;;
55609;SDS011;41486;52.502;13.486;2022-11-14T08:20:12;39.28;;;16.63;;
55609;SDS011;41486;52.502;13.486;2022-11-14T08:23:01;40.15;;;17.58;;
55609;SDS011;41486;52.502;13.486;2022-11-14T08:25:51;37.58;;;17.17;;
55609;SDS011;41486;52.502;13.486;2022-11-14T08:28:44;44.83;;;20.63;;
55609;SDS011;41486;52.502;13.486;2022-11-14T08:31:30;51.33;;;23.48;;
55609;SDS011;41486;52.502;13.486;2022-11-14T08:34:17;64.82;;;31.10;;
55609;SDS011;41486;52.502;13.486;2022-11-14T08:37:06;45.78;;;20.58;;
55609;SDS011;41486;52.502;13.486;2022-11-14T08:39:53;40.85;;;19.33;;
55609;SDS011;41486;52.502;13.486;2022-11-14T08:42:39;46.08;;;20.75;;
55609;SDS011;41486;52.502;13.486;2022-11-14T08:45:28;41.25;;;18.55;;
55609;SDS011;41486;52.502;13.486;2022-11-14T08:48:14;45.63;;;18.80;;
55609;SDS011;41486;52.502;13.486;2022-11-14T08:51:01;41.72;;;17.83;;
55609;SDS011;41486;52.502;13.486;2022-11-14T08:53:49;44.22;;;17.25;;
55609;SDS011;41486;52.502;13.486;2022-11-14T08:56:36;41.33;;;16.50;;
55609;SDS011;41486;52.502;13.486;2022-11-14T08:59:23;37.80;;;16.38;;
55609;SDS011;41486;52.502;13.486;2022-11-14T09:02:11;42.40;;;16.90;;
55609;SDS011;41486;52.502;13.486;2022-11-14T09:04:58;39.47;;;17.10;;
55609;SDS011;41486;52.502;13.486;2022-11-14T09:07:45;32.95;;;15.98;;
55609;SDS011;41486;52.502;13.486;2022-11-14T09:10:31;35.10;;;15.18;;
55609;SDS011;41486;52.502;13.486;2022-11-14T09:13:17;36.25;;;15.38;;
55609;SDS011;41486;52.502;13.486;2022-11-14T09:16:04;45.00;;;18.05;;
55609;SDS011;41486;52.502;13.486;2022-11-14T09:18:53;40.35;;;16.95;;
55609;SDS011;41486;52.502;13.486;2022-11-14T09:21:40;42.20;;;16.20;;
55609;SDS011;41486;52.502;13.486;2022-11-14T09:24:26;41.13;;;19.45;;
55609;SDS011;41486;52.502;13.486;2022-11-14T09:27:13;38.72;;;15.60;;
55609;SDS011;41486;52.502;13.486;2022-11-14T09:29:59;38.22;;;16.70;;
55609;SDS011;41486;52.502;13.486;2022-11-14T09:32:49;33.20;;;15.18;;
55609;SDS011;41486;52.502;13.486;2022-11-14T09:35:37;35.17;;;15.15;;
55609;SDS011;41486;52.502;13.486;2022-11-14T09:38:24;32.97;;;14.27;;
55609;SDS011;41486;52.502;13.486;2022-11-14T09:44:30;35.28;;;16.77;;
55609;SDS011;41486;52.502;13.486;2022-11-14T09:47:29;34.05;;;15.82;;
55609;SDS011;41486;52.502;13.486;2022-11-14T09:50:21;32.78;;;14.55;;
55609;SDS011;41486;52.502;13.486;2022-11-14T09:53:14;32.15;;;16.40;;
55609;SDS011;41486;52.502;13.486;2022-11-14T09:56:11;34.30;;;14.63;;
55609;SDS011;41486;52.502;13.486;2022-11-14T09:59:00;31.65;;;13.85;;
55609;SDS011;41486;52.502;13.486;2022-11-14T10:01:49;29.50;;;14.63;;
55609;SDS011;41486;52.502;13.486;2022-11-14T10:04:44;33.63;;;15.63;;
55609;SDS011;41486;52.502;13.486;2022-11-14T10:07:44;35.78;;;14.38;;
55609;SDS011;41486;52.502;13.486;2022-11-14T10:10:49;29.40;;;14.23;;
55609;SDS011;41486;52.502;13.486;2022-11-14T10:13:52;28.27;;;14.32;;
55609;SDS011;41486;52.502;13.486;2022-11-14T10:17:09;34.33;;;14.55;;
55609;SDS011;41486;52.502;13.486;2022-11-14T10:20:08;33.28;;;16.48;;
55609;SDS011;41486;52.502;13.486;2022-11-14T10:23:06;36.80;;;18.05;;
55609;SDS011;41486;52.502;13.486;2022-11-14T10:26:06;31.60;;;16.05;;
55609;SDS011;41486;52.502;13.486;2022-11-14T10:29:03;27.50;;;13.60;;
55609;SDS011;41486;52.502;13.486;2022-11-14T10:32:10;32.63;;;14.77;;
55609;SDS011;41486;52.502;13.486;2022-11-14T10:35:07;43.17;;;21.50;;
55609;SDS011;41486;52.502;13.486;2022-11-14T10:38:00;29.75;;;15.27;;
55609;SDS011;41486;52.502;13.486;2022-11-14T10:40:53;29.50;;;15.68;;
55609;SDS011;41486;52.502;13.486;2022-11-14T10:43:45;30.52;;;14.32;;
55609;SDS011;41486;52.502;13.486;2022-11-14T10:46:34;29.33;;;14.63;;
55609;SDS011;41486;52.502;13.486;2022-11-14T10:49:23;36.55;;;17.83;;
55609;SDS011;41486;52.502;13.486;2022-11-14T10:52:12;30.45;;;13.80;;
55609;SDS011;41486;52.502;13.486;2022-11-14T10:55:02;28.77;;;13.85;;
55609;SDS011;41486;52.502;13.486;2022-11-14T10:57:52;27.38;;;13.30;;
55609;SDS011;41486;52.502;13.486;2022-11-14T11:00:46;25.77;;;13.25;;
55609;SDS011;41486;52.502;13.486;2022-11-14T11:03:39;27.48;;;13.75;;
55609;SDS011;41486;52.502;13.486;2022-11-14T11:06:27;29.50;;;13.20;;
55609;SDS011;41486;52.502;13.486;2022-11-14T11:09:15;23.20;;;11.75;;
55609;SDS011;41486;52.502;13.486;2022-11-14T11:12:37;31.17;;;13.13;;
55609;SDS011;41486;52.502;13.486;2022-11-14T11:15:29;23.83;;;11.85;;
55609;SDS011;41486;52.502;13.486;2022-11-14T11:18:25;27.38;;;13.20;;
55609;SDS011;41486;52.502;13.486;2022-11-14T11:21:15;24.65;;;13.43;;
55609;SDS011;41486;52.502;13.486;2022-11-14T11:24:03;19.55;;;11.80;;
55609;SDS011;41486;52.502;13.486;2022-11-14T11:26:52;21.45;;;12.05;;
55609;SDS011;41486;52.502;13.486;2022-11-14T11:30:07;25.45;;;12.13;;
55609;SDS011;41486;52.502;13.486;2022-11-14T11:33:16;21.10;;;12.32;;
55609;SDS011;41486;52.502;13.486;2022-11-14T11:38:58;26.40;;;12.30;;
55609;SDS011;41486;52.502;13.486;2022-11-14T11:41:45;19.15;;;10.98;;
55609;SDS011;41486;52.502;13.486;2022-11-14T11:44:54;23.58;;;12.57;;
55609;SDS011;41486;52.502;13.486;2022-11-14T11:47:47;23.48;;;13.48;;
55609;SDS011;41486;52.502;13.486;2022-11-14T11:50:41;22.50;;;12.25;;
55609;SDS011;41486;52.502;13.486;2022-11-14T11:53:30;27.40;;;13.32;;
55609;SDS011;41486;52.502;13.486;2022-11-14T11:56:23;23.80;;;13.07;;
55609;SDS011;41486;52.502;13.486;2022-11-14T11:59:20;25.73;;;12.55;;
55609;SDS011;41486;52.502;13.486;2022-11-14T12:02:19;22.48;;;12.55;;
55609;SDS011;41486;52.502;13.486;2022-11-14T12:05:10;54.05;;;33.22;;
55609;SDS011;41486;52.502;13.486;2022-11-14T12:08:01;21.13;;;11.15;;
55609;SDS011;41486;52.502;13.486;2022-11-14T12:10:52;17.50;;;10.45;;
55609;SDS011;41486;52.502;13.486;2022-11-14T12:13:54;21.80;;;11.93;;
55609;SDS011;41486;52.502;13.486;2022-11-14T12:17:07;22.20;;;12.45;;
55609;SDS011;41486;52.502;13.486;2022-11-14T12:26:54;17.00;;;10.40;;
55609;SDS011;41486;52.502;13.486;2022-11-14T12:30:03;16.13;;;9.50;;
55609;SDS011;41486;52.502;13.486;2022-11-14T12:32:59;16.48;;;9.55;;
55609;SDS011;41486;52.502;13.486;2022-11-14T12:36:15;15.40;;;10.07;;
55609;SDS011;41486;52.502;13.486;2022-11-14T12:39:02;19.45;;;11.05;;
55609;SDS011;41486;52.502;13.486;2022-11-14T12:41:49;15.77;;;10.65;;
55609;SDS011;41486;52.502;13.486;2022-11-14T12:44:37;16.60;;;9.50;;
55609;SDS011;41486;52.502;13.486;2022-11-14T12:47:25;17.65;;;9.85;;
55609;SDS011;41486;52.502;13.486;2022-11-14T12:50:29;16.88;;;10.65;;
55609;SDS011;41486;52.502;13.486;2022-11-14T12:53:37;15.55;;;9.60;;
55609;SDS011;41486;52.502;13.486;2022-11-14T12:59:48;15.40;;;9.50;;
55609;SDS011;41486;52.502;13.486;2022-11-14T13:05:57;17.23;;;10.32;;
55609;SDS011;41486;52.502;13.486;2022-11-14T13:08:54;19.27;;;10.93;;
55609;SDS011;41486;52.502;13.486;2022-11-14T13:11:50;17.33;;;10.18;;
55609;SDS011;41486;52.502;13.486;2022-11-14T13:15:20;15.68;;;8.52;;
55609;SDS011;41486;52.502;13.486;2022-11-14T13:18:48;16.45;;;10.82;;
55609;SDS011;41486;52.502;13.486;2022-11-14T13:25:21;16.58;;;10.23;;
55609;SDS011;41486;52.502;13.486;2022-11-14T13:31:42;12.63;;;8.18;;
55609;SDS011;41486;52.502;13.486;2022-11-14T13:34:38;16.92;;;8.27;;
55609;SDS011;41486;52.502;13.486;2022-11-14T13:37:35;18.98;;;8.77;;
55609;SDS011;41486;52.502;13.486;2022-11-14T13:40:39;17.13;;;10.15;;
55609;SDS011;41486;52.502;13.486;2022-11-14T13:43:36;15.63;;;8.67;;
55609;SDS011;41486;52.502;13.486;2022-11-14T13:46:49;14.10;;;8.23;;
55609;SDS011;41486;52.502;13.486;2022-11-14T13:52:43;12.63;;;8.43;;
55609;SDS011;41486;52.502;13.486;2022-11-14T13:55:36;13.68;;;7.80;;
55609;SDS011;41486;52.502;13.486;2022-11-14T14:05:20;13.85;;;8.70;;
55609;SDS011;41486;52.502;13.486;2022-11-14T14:08:26;14.23;;;8.55;;
55609;SDS011;41486;52.502;13.486;2022-11-14T14:11:28;13.35;;;8.48;;
55609;SDS011;41486;52.502;13.486;2022-11-14T14:14:41;15.50;;;8.40;;
55609;SDS011;41486;52.502;13.486;2022-11-14T14:17:43;10.85;;;7.03;;
55609;SDS011;41486;52.502;13.486;2022-11-14T14:20:42;14.10;;;8.13;;
55609;SDS011;41486;52.502;13.486;2022-11-14T14:23:35;14.68;;;9.10;;
55609;SDS011;41486;52.502;13.486;2022-11-14T14:26:32;22.13;;;12.77;;
55609;SDS011;41486;52.502;13.486;2022-11-14T14:29:32;16.00;;;8.30;;
55609;SDS011;41486;52.502;13.486;2022-11-14T14:32:30;14.63;;;8.57;;
55609;SDS011;41486;52.502;13.486;2022-11-14T14:35:25;13.15;;;8.15;;
55609;SDS011;41486;52.502;13.486;2022-11-14T14:38:23;10.40;;;7.40;;
55609;SDS011;41486;52.502;13.486;2022-11-14T14:41:12;14.32;;;8.32;;
55609;SDS011;41486;52.502;13.486;2022-11-14T14:44:02;12.52;;;8.75;;
55609;SDS011;41486;52.502;13.486;2022-11-14T14:46:49;16.75;;;9.52;;
55609;SDS011;41486;52.502;13.486;2022-11-14T14:49:37;14.85;;;9.68;;
55609;SDS011;41486;52.502;13.486;2022-11-14T14:52:28;13.70;;;8.85;;
55609;SDS011;41486;52.502;13.486;2022-11-14T14:55:17;14.38;;;8.65;;
55609;SDS011;41486;52.502;13.486;2022-11-14T14:58:13;14.35;;;9.15;;
55609;SDS011;41486;52.502;13.486;2022-11-14T15:01:08;16.52;;;10.45;;
55609;SDS011;41486;52.502;13.486;2022-11-14T15:03:57;18.95;;;10.80;;
55609;SDS011;41486;52.502;13.486;2022-11-14T15:06:48;16.67;;;10.70;;
55609;SDS011;41486;52.502;13.486;2022-11-14T15:09:37;17.75;;;10.30;;
55609;SDS011;41486;52.502;13.486;2022-11-14T15:12:23;18.67;;;10.63;;
55609;SDS011;41486;52.502;13.486;2022-11-14T15:15:12;19.55;;;10.38;;
55609;SDS011;41486;52.502;13.486;2022-11-14T15:18:01;18.95;;;10.23;;
55609;SDS011;41486;52.502;13.486;2022-11-14T15:21:05;16.17;;;10.73;;
55609;SDS011;41486;52.502;13.486;2022-11-14T15:23:56;15.75;;;9.95;;
55609;SDS011;41486;52.502;13.486;2022-11-14T15:26:45;21.63;;;11.27;;
55609;SDS011;41486;52.502;13.486;2022-11-14T15:29:34;16.85;;;10.23;;
55609;SDS011;41486;52.502;13.486;2022-11-14T15:32:21;17.83;;;11.25;;
55609;SDS011;41486;52.502;13.486;2022-11-14T15:35:22;22.98;;;10.65;;
55609;SDS011;41486;52.502;13.486;2022-11-14T15:38:20;20.48;;;10.93;;
55609;SDS011;41486;52.502;13.486;2022-11-14T15:41:28;16.77;;;9.63;;
55609;SDS011;41486;52.502;13.486;2022-11-14T15:44:31;19.30;;;10.60;;
55609;SDS011;41486;52.502;13.486;2022-11-14T15:47:20;26.63;;;16.50;;
55609;SDS011;41486;52.502;13.486;2022-11-14T15:50:21;65.05;;;40.63;;
55609;SDS011;41486;52.502;13.486;2022-11-14T15:53:20;21.60;;;12.77;;
55609;SDS011;41486;52.502;13.486;2022-11-14T15:56:10;17.67;;;10.77;;
55609;SDS011;41486;52.502;13.486;2022-11-14T15:58:58;18.48;;;10.27;;
55609;SDS011;41486;52.502;13.486;2022-11-14T16:01:46;18.65;;;10.32;;
55609;SDS011;41486;52.502;13.486;2022-11-14T16:04:35;19.65;;;11.93;;
55609;SDS011;41486;52.502;13.486;2022-11-14T16:07:30;16.40;;;10.73;;
55609;SDS011;41486;52.502;13.486;2022-11-14T16:10:17;17.60;;;10.73;;
55609;SDS011;41486;52.502;13.486;2022-11-14T16:13:04;19.13;;;11.15;;
55609;SDS011;41486;52.502;13.486;2022-11-14T16:15:51;20.83;;;11.07;;
55609;SDS011;41486;52.502;13.486;2022-11-14T16:18:39;19.25;;;11.07;;
55609;SDS011;41486;52.502;13.486;2022-11-14T16:21:26;20.27;;;10.77;;
55609;SDS011;41486;52.502;13.486;2022-11-14T16:24:14;21.27;;;11.25;;
55609;SDS011;41486;52.502;13.486;2022-11-14T16:27:04;17.52;;;10.63;;
55609;SDS011;41486;52.502;13.486;2022-11-14T16:29:51;16.42;;;10.05;;
55609;SDS011;41486;52.502;13.486;2022-11-14T16:32:38;20.00;;;11.00;;
55609;SDS011;41486;52.502;13.486;2022-11-14T16:35:26;17.90;;;11.38;;
55609;SDS011;41486;52.502;13.486;2022-11-14T16:38:14;17.65;;;10.95;;
55609;SDS011;41486;52.502;13.486;2022-11-14T16:41:00;19.02;;;10.98;;
55609;SDS011;41486;52.502;13.486;2022-11-14T16:43:47;23.27;;;11.80;;
55609;SDS011;41486;52.502;13.486;2022-11-14T16:46:34;18.83;;;10.40;;
55609;SDS011;41486;52.502;13.486;2022-11-14T16:49:20;19.63;;;10.98;;
55609;SDS011;41486;52.502;13.486;2022-11-14T16:52:10;17.30;;;11.00;;
55609;SDS011;41486;52.502;13.486;2022-11-14T16:54:57;18.63;;;9.98;;
55609;SDS011;41486;52.502;13.486;2022-11-14T16:57:43;23.35;;;11.45;;
55609;SDS011;41486;52.502;13.486;2022-11-14T17:00:30;19.88;;;11.65;;